Current Weather

Lamerd

Lamerd, Iran (OISR)

Report from: Tuesday, July 16, 2024 2:00 PM UTC
Current time: Tuesday, July 16, 2024 2:59 PM UTC

Nearby weather – Weather history – Daily summaries
Weather forecast

Temperature44.0°C (111.2°F)
Heat index52.4°C (126.3°F)
Dew point23.0°C (73.4°F)
Winds 14 kts (7.2 m/s, 16.1 mph) West-Northwest (290°)
Clouds Sky clear
Altimeter29.50 in.Hg (999 mB)
Relative humidity31 %
Density altitude4,085 ft. (1,245 m)
Remarks Ceiling and visibility OK
No significant changes expected in the next two hours
Flight conditions Visual Meteorological Conditions
Raw dataOISR 161400Z 29014KT CAVOK 44/23 Q0999 A2950 NOSIG
An error has occurred. This application may no longer respond until reloaded. Reload 🗙